createdAt,value
2019-04-30T00:01:55.766Z,97968.63
2019-04-30T00:04:37.237Z,97962.97
2019-04-30T00:07:10.197Z,97974.02
2019-04-30T00:09:49.133Z,97972.65
2019-04-30T00:12:20.013Z,97969.14
2019-04-30T00:14:55.039Z,97975.28
2019-04-30T00:17:31.086Z,97973.14
2019-04-30T00:20:05.528Z,97967.73
2019-04-30T00:22:47.166Z,97967.73
2019-04-30T00:25:19.626Z,97967.88
2019-04-30T00:27:52.071Z,97960.20
2019-04-30T00:30:26.537Z,97958.82
2019-04-30T00:33:00.900Z,97958.82
2019-04-30T00:35:35.645Z,97956.48
2019-04-30T00:38:09.921Z,97963.70
2019-04-30T00:40:45.009Z,97961.67
2019-04-30T00:43:19.374Z,97952.27
2019-04-30T00:45:55.146Z,97952.27
2019-04-30T00:48:31.282Z,97950.41
2019-04-30T00:51:08.933Z,97958.02
2019-04-30T00:53:43.780Z,97958.02
2019-04-30T00:56:19.968Z,97960.00
2019-04-30T00:58:57.417Z,97962.41
2019-04-30T01:01:48.315Z,97967.47
2019-04-30T01:04:28.868Z,97972.34
2019-04-30T01:07:05.321Z,97972.34
2019-04-30T01:09:39.739Z,97970.77
2019-04-30T01:12:17.463Z,97965.08
2019-04-30T01:14:49.940Z,97967.52
2019-04-30T01:17:23.935Z,97962.91
2019-04-30T01:19:59.230Z,97954.17
2019-04-30T01:22:33.684Z,97961.35
2019-04-30T01:25:13.302Z,97957.48
2019-04-30T01:27:45.774Z,97953.77
2019-04-30T01:30:22.867Z,97953.77
2019-04-30T01:32:58.823Z,97952.64
2019-04-30T01:35:33.281Z,97952.78
2019-04-30T01:38:11.065Z,97952.78
2019-04-30T01:40:47.557Z,97948.31
2019-04-30T01:43:30.474Z,97947.97
2019-04-30T01:46:01.786Z,97948.45
2019-04-30T01:48:34.952Z,97947.83
2019-04-30T01:51:13.363Z,97954.25
2019-04-30T01:53:44.802Z,97954.25
2019-04-30T01:56:35.509Z,97948.55
2019-04-30T01:59:19.691Z,97950.78
2019-04-30T02:01:54.281Z,97946.13
2019-04-30T02:04:28.996Z,97945.19
2019-04-30T02:07:04.728Z,97955.08
2019-04-30T02:09:39.112Z,97955.22
2019-04-30T02:12:13.604Z,97956.73
2019-04-30T02:14:49.759Z,97955.29
2019-04-30T02:17:23.918Z,97955.12
2019-04-30T02:19:57.378Z,97953.41
2019-04-30T02:22:32.612Z,97957.68
2019-04-30T02:25:07.301Z,97948.17
2019-04-30T02:27:41.768Z,97955.50
2019-04-30T02:30:20.521Z,97955.06
2019-04-30T02:32:53.279Z,97950.16
2019-04-30T02:35:50.108Z,97947.00
2019-04-30T02:38:31.278Z,97950.52
2019-04-30T02:41:06.320Z,97950.52
2019-04-30T02:43:42.937Z,97959.16
2019-04-30T02:46:19.284Z,97954.35
2019-04-30T02:48:56.105Z,97954.35
2019-04-30T02:51:33.651Z,97956.97
2019-04-30T02:54:24.021Z,97956.97
2019-04-30T02:57:11.286Z,97965.83
2019-04-30T03:00:02.654Z,97974.97
2019-04-30T03:02:39.160Z,97974.92
2019-04-30T03:05:14.316Z,97977.59
2019-04-30T03:07:50.358Z,97977.09
2019-04-30T03:10:24.696Z,97983.32
2019-04-30T03:13:00.010Z,97980.40
2019-04-30T03:15:34.647Z,97988.31
2019-04-30T03:18:23.155Z,97990.08
2019-04-30T03:21:21.717Z,97994.81
2019-04-30T03:23:55.940Z,97992.45
2019-04-30T03:26:29.714Z,97998.89
2019-04-30T03:29:03.932Z,97996.52
2019-04-30T03:31:44.401Z,97998.97
2019-04-30T03:34:24.154Z,98000.43
2019-04-30T03:36:50.546Z,97995.36
2019-04-30T03:39:24.938Z,97999.17
2019-04-30T03:41:59.730Z,97996.25
2019-04-30T03:44:34.106Z,97992.85
2019-04-30T03:47:10.918Z,97993.72
2019-04-30T03:49:44.300Z,97989.53
2019-04-30T03:52:19.762Z,97989.53
2019-04-30T03:54:53.894Z,97986.73
2019-04-30T03:57:30.203Z,97986.56
2019-04-30T04:00:04.274Z,97981.06
2019-04-30T04:02:50.170Z,97982.14
2019-04-30T04:05:46.305Z,97984.30
2019-04-30T04:08:31.941Z,97981.37
2019-04-30T04:11:24.526Z,97990.02
2019-04-30T04:13:59.726Z,97981.32
2019-04-30T04:16:32.680Z,97988.31
2019-04-30T04:20:30.589Z,98000.93
2019-04-30T04:23:05.112Z,98000.93
2019-04-30T04:25:40.317Z,98005.52
2019-04-30T04:28:14.726Z,98005.52
2019-04-30T04:30:50.580Z,98003.37
2019-04-30T04:33:24.944Z,98007.90
2019-04-30T04:35:59.812Z,98001.80
2019-04-30T04:38:33.942Z,98001.80
2019-04-30T04:41:10.349Z,98013.24
2019-04-30T04:43:43.943Z,98015.85
2019-04-30T04:46:20.320Z,98013.47
2019-04-30T04:48:53.928Z,98021.20
2019-04-30T04:51:34.499Z,98022.67
2019-04-30T04:54:03.419Z,98026.96
2019-04-30T04:56:39.866Z,98027.85
2019-04-30T05:01:01.335Z,98017.94
2019-04-30T05:03:39.925Z,98022.55
2019-04-30T05:06:14.371Z,98025.86
2019-04-30T05:08:49.351Z,98025.86
2019-04-30T05:11:23.737Z,98027.28
2019-04-30T05:13:58.934Z,98032.19
2019-04-30T05:16:33.330Z,98032.47
2019-04-30T05:19:08.895Z,98032.47
2019-04-30T05:21:44.759Z,98026.80
2019-04-30T05:24:19.010Z,98031.58
2019-04-30T05:26:53.328Z,98022.11
2019-04-30T05:29:28.937Z,98022.11
2019-04-30T05:32:03.274Z,98035.48
2019-04-30T05:34:38.571Z,98035.48
2019-04-30T05:37:13.265Z,98035.78
2019-04-30T05:39:48.945Z,98035.78
2019-04-30T05:42:23.306Z,98040.68
2019-04-30T05:44:59.341Z,98040.68
2019-04-30T05:47:33.727Z,98040.61
2019-04-30T05:50:10.266Z,98041.13
2019-04-30T05:52:44.922Z,98035.88
2019-04-30T05:55:21.262Z,98036.53
2019-04-30T05:57:56.558Z,98029.27
2019-04-30T06:00:32.278Z,98035.16
2019-04-30T06:03:06.766Z,98027.93
2019-04-30T06:05:41.271Z,98019.43
2019-04-30T06:08:19.199Z,98019.43
2019-04-30T06:11:04.703Z,98021.02
2019-04-30T06:13:52.358Z,98020.75
2019-04-30T06:16:29.822Z,98022.83
2019-04-30T06:19:04.252Z,98021.19
2019-04-30T06:24:21.264Z,98025.88
2019-04-30T06:26:55.656Z,98025.88
2019-04-30T06:29:30.118Z,98030.05
2019-04-30T06:32:05.300Z,98037.80
2019-04-30T06:34:42.062Z,98037.80
2019-04-30T06:37:19.260Z,98039.17
2019-04-30T06:39:53.313Z,98040.89
2019-04-30T06:42:29.342Z,98044.48
2019-04-30T06:45:04.342Z,98046.48
2019-04-30T06:47:39.301Z,98045.72
2019-04-30T06:50:13.851Z,98039.89
2019-04-30T06:52:56.688Z,98047.61
2019-04-30T06:55:24.572Z,98044.42
2019-04-30T06:58:11.176Z,98042.74
2019-04-30T07:00:40.023Z,98048.89
2019-04-30T07:03:14.924Z,98040.71
2019-04-30T07:05:48.821Z,98042.62
2019-04-30T07:08:46.767Z,98042.62
2019-04-30T07:11:24.303Z,98046.88
2019-04-30T07:13:59.960Z,98048.00
2019-04-30T07:16:34.730Z,98033.86
2019-04-30T07:19:09.399Z,98033.86
2019-04-30T07:21:45.321Z,98045.29
2019-04-30T07:24:21.080Z,98040.24
2019-04-30T07:26:59.711Z,98040.98
2019-04-30T07:29:31.719Z,98047.31
2019-04-30T07:32:09.217Z,98050.08
2019-04-30T07:34:43.253Z,98051.84
2019-04-30T07:37:24.078Z,98046.59
2019-04-30T07:39:53.666Z,98050.44
2019-04-30T07:42:29.386Z,98055.65
2019-04-30T07:45:04.283Z,98058.20
2019-04-30T07:47:39.618Z,98054.17
2019-04-30T07:50:16.371Z,98062.80
2019-04-30T07:53:01.651Z,98063.20
2019-04-30T07:55:29.363Z,98058.83
2019-04-30T07:58:04.318Z,98057.23
2019-04-30T08:00:40.274Z,98069.62
2019-04-30T08:03:33.777Z,98069.62
2019-04-30T08:06:10.098Z,98069.33
2019-04-30T08:08:45.054Z,98071.34
2019-04-30T08:11:25.810Z,98066.23
2019-04-30T08:13:56.195Z,98066.23
2019-04-30T08:16:32.418Z,98076.22
2019-04-30T08:19:09.030Z,98076.22
2019-04-30T08:21:43.708Z,98076.58
2019-04-30T08:24:19.345Z,98078.67
2019-04-30T08:26:53.784Z,98073.66
2019-04-30T08:29:26.618Z,98073.92
2019-04-30T08:32:00.946Z,98066.92
2019-04-30T08:34:35.267Z,98072.80
2019-04-30T08:37:17.322Z,98072.80
2019-04-30T08:39:45.937Z,98072.23
2019-04-30T08:42:30.701Z,98056.03
2019-04-30T08:44:58.076Z,98062.95
2019-04-30T08:47:32.735Z,98066.55
2019-04-30T08:50:06.658Z,98066.55
2019-04-30T08:52:41.277Z,98062.86
2019-04-30T08:55:22.045Z,98054.81
2019-04-30T08:58:06.585Z,98054.81
2019-04-30T09:00:30.286Z,98051.83
2019-04-30T09:03:05.301Z,98056.41
2019-04-30T09:05:59.021Z,98047.63
2019-04-30T09:08:33.748Z,98050.36
2019-04-30T09:11:21.768Z,98058.91
2019-04-30T09:13:43.920Z,98050.78
2019-04-30T09:16:19.415Z,98050.05
2019-04-30T09:18:55.762Z,98053.42
2019-04-30T09:21:30.049Z,98053.42
2019-04-30T09:24:04.699Z,98056.75
2019-04-30T09:26:39.330Z,98056.75
2019-04-30T09:29:15.703Z,98047.14
2019-04-30T09:31:50.252Z,98055.80
2019-04-30T09:34:24.718Z,98052.52
2019-04-30T09:36:59.137Z,98048.84
2019-04-30T09:39:33.711Z,98065.88
2019-04-30T09:42:09.273Z,98065.88
2019-04-30T09:44:43.792Z,98054.48
2019-04-30T09:47:16.997Z,98054.48
2019-04-30T09:49:51.124Z,98052.44
2019-04-30T09:52:25.734Z,98047.75
2019-04-30T09:55:01.865Z,98055.74
2019-04-30T09:57:38.887Z,98055.74
2019-04-30T10:00:13.795Z,98050.95
2019-04-30T10:02:48.883Z,98048.92
2019-04-30T10:05:23.660Z,98052.27
2019-04-30T10:07:56.691Z,98052.27
2019-04-30T10:10:36.348Z,98053.77
2019-04-30T10:13:11.422Z,98053.59
2019-04-30T10:15:58.444Z,98061.55
2019-04-30T10:18:32.946Z,98058.04
2019-04-30T10:21:09.122Z,98055.13
2019-04-30T10:23:43.714Z,98046.19
2019-04-30T10:26:18.051Z,98042.63
2019-04-30T10:28:54.320Z,98046.86
2019-04-30T10:31:29.318Z,98034.83
2019-04-30T10:34:03.950Z,98033.52
2019-04-30T10:36:41.236Z,98026.97
2019-04-30T10:39:14.552Z,98032.83
2019-04-30T10:41:49.100Z,98024.56
2019-04-30T10:44:23.646Z,98028.13
2019-04-30T10:46:59.325Z,98032.61
2019-04-30T10:49:34.273Z,98032.35
2019-04-30T10:52:09.439Z,98039.65
2019-04-30T10:54:44.265Z,98034.13
2019-04-30T10:57:19.094Z,98037.64
2019-04-30T10:59:53.648Z,98030.90
2019-04-30T11:02:28.731Z,98030.90
2019-04-30T11:05:04.293Z,98041.53
2019-04-30T11:07:39.157Z,98036.83
2019-04-30T11:10:14.134Z,98034.30
2019-04-30T11:12:48.680Z,98034.30
2019-04-30T11:15:22.460Z,98026.83
2019-04-30T11:17:57.072Z,98020.17
2019-04-30T11:20:32.150Z,98027.74
2019-04-30T11:23:14.336Z,98023.87
2019-04-30T11:25:46.008Z,98033.27
2019-04-30T11:28:21.657Z,98033.27
2019-04-30T11:33:54.647Z,98026.07
2019-04-30T11:36:29.292Z,98021.98
2019-04-30T11:39:04.239Z,98017.09
2019-04-30T11:41:39.557Z,98022.11
2019-04-30T11:44:13.948Z,98010.83
2019-04-30T11:47:27.280Z,98012.06
2019-04-30T11:50:01.676Z,98015.20
2019-04-30T11:52:36.023Z,98006.53
2019-04-30T11:55:12.558Z,97994.19
2019-04-30T11:57:49.399Z,98007.84
2019-04-30T12:00:29.709Z,97989.21
2019-04-30T12:03:02.797Z,97989.21
2019-04-30T12:05:38.888Z,97999.42
2019-04-30T12:08:19.556Z,97993.75
2019-04-30T12:11:07.272Z,97996.08
2019-04-30T12:13:41.683Z,97996.08
2019-04-30T12:16:15.012Z,97989.31
2019-04-30T12:18:50.941Z,97990.60
2019-04-30T12:21:25.293Z,97982.67
2019-04-30T12:23:59.767Z,97990.50
2019-04-30T12:26:32.642Z,97982.03
2019-04-30T12:29:08.983Z,97982.03
2019-04-30T12:31:43.037Z,97983.34
2019-04-30T12:34:17.326Z,97980.70
2019-04-30T12:36:51.876Z,97980.34
2019-04-30T12:39:26.265Z,97978.97
2019-04-30T12:42:02.346Z,97973.40
2019-04-30T12:44:39.879Z,97972.48
2019-04-30T12:47:13.642Z,97964.45
2019-04-30T12:49:55.298Z,97964.45
2019-04-30T12:52:35.107Z,97974.00
2019-04-30T12:55:23.103Z,97966.49
2019-04-30T12:58:00.437Z,97966.49
2019-04-30T13:00:34.279Z,97968.44
2019-04-30T13:03:08.686Z,97969.62
2019-04-30T13:05:43.202Z,97962.30
2019-04-30T13:08:20.757Z,97958.58
2019-04-30T13:10:55.050Z,97960.91
2019-04-30T13:13:32.223Z,97960.91
2019-04-30T13:16:06.278Z,97956.31
2019-04-30T13:18:40.648Z,97958.53
2019-04-30T13:21:16.285Z,97947.05
2019-04-30T13:23:50.945Z,97955.78
2019-04-30T13:26:25.654Z,97957.33
2019-04-30T13:29:04.774Z,97952.52
2019-04-30T13:31:37.857Z,97940.16
2019-04-30T13:34:29.963Z,97937.31
2019-04-30T13:37:04.388Z,97938.97
2019-04-30T13:39:52.263Z,97943.05
2019-04-30T13:42:29.249Z,97944.24
2019-04-30T13:45:03.940Z,97930.20
2019-04-30T13:47:39.056Z,97930.20
2019-04-30T13:50:13.686Z,97915.24
2019-04-30T13:52:48.866Z,97928.55
2019-04-30T13:55:23.313Z,97928.55
2019-04-30T13:57:57.728Z,97914.45
2019-04-30T14:00:31.096Z,97914.45
2019-04-30T14:03:22.473Z,97916.42
2019-04-30T14:05:59.330Z,97906.57
2019-04-30T14:08:39.288Z,97918.69
2019-04-30T14:11:13.891Z,97914.50
2019-04-30T14:13:50.305Z,97915.13
2019-04-30T14:16:25.271Z,97915.13
2019-04-30T14:18:59.862Z,97916.50
2019-04-30T14:21:35.383Z,97913.97
2019-04-30T14:24:11.274Z,97910.74
2019-04-30T14:26:45.859Z,97911.24
2019-04-30T14:29:20.316Z,97916.77
2019-04-30T14:31:54.869Z,97913.61
2019-04-30T14:34:29.328Z,97914.70
2019-04-30T14:37:03.922Z,97912.06
2019-04-30T14:39:38.916Z,97907.84
2019-04-30T14:42:14.599Z,97895.44
2019-04-30T14:44:52.551Z,97895.44
2019-04-30T14:47:41.005Z,97901.77
2019-04-30T14:50:18.492Z,97898.82
2019-04-30T14:53:03.096Z,97898.04
2019-04-30T14:56:09.470Z,97896.25
2019-04-30T14:59:07.277Z,97894.98
2019-04-30T15:01:49.103Z,97894.63
2019-04-30T15:04:25.304Z,97892.18
2019-04-30T15:07:00.279Z,97886.45
2019-04-30T15:09:34.734Z,97892.41
2019-04-30T15:12:09.682Z,97892.50
2019-04-30T15:14:44.248Z,97886.03
2019-04-30T15:17:18.739Z,97891.95
2019-04-30T15:19:54.529Z,97886.14
2019-04-30T15:22:29.052Z,97886.58
2019-04-30T15:25:03.656Z,97883.03
2019-04-30T15:27:45.187Z,97876.17
2019-04-30T15:30:21.626Z,97876.17
2019-04-30T15:32:55.335Z,97878.87
2019-04-30T15:35:29.779Z,97880.17
2019-04-30T15:38:02.833Z,97878.69
2019-04-30T15:40:38.729Z,97878.66
2019-04-30T15:43:11.908Z,97876.13
2019-04-30T15:45:44.727Z,97867.18
2019-04-30T15:48:19.684Z,97876.20
2019-04-30T15:50:54.091Z,97877.97
2019-04-30T15:53:28.633Z,97881.94
2019-04-30T15:56:03.103Z,97881.94
2019-04-30T15:58:39.416Z,97875.62
2019-04-30T16:01:14.369Z,97881.17
2019-04-30T16:03:50.510Z,97883.33
2019-04-30T16:06:24.945Z,97882.05
2019-04-30T16:09:01.281Z,97887.73
2019-04-30T16:11:49.229Z,97875.03
2019-04-30T16:14:33.274Z,97878.48
2019-04-30T16:17:14.936Z,97877.37
2019-04-30T16:19:49.322Z,97879.81
2019-04-30T16:22:23.864Z,97879.81
2019-04-30T16:24:56.856Z,97873.25
2019-04-30T16:27:30.938Z,97873.59
2019-04-30T16:30:05.779Z,97871.80
2019-04-30T16:32:40.285Z,97870.67
2019-04-30T16:35:14.951Z,97870.14
2019-04-30T16:37:49.707Z,97875.48
2019-04-30T16:40:24.285Z,97873.85
2019-04-30T16:42:58.696Z,97875.08
2019-04-30T16:45:31.641Z,97874.20
2019-04-30T16:48:05.927Z,97865.95
2019-04-30T16:50:40.273Z,97865.77
2019-04-30T16:53:14.645Z,97865.77
2019-04-30T16:55:50.611Z,97861.77
2019-04-30T16:58:23.660Z,97867.50
2019-04-30T17:00:59.343Z,97861.55
2019-04-30T17:03:39.611Z,97854.46
2019-04-30T17:06:17.510Z,97855.61
2019-04-30T17:09:13.547Z,97855.94
2019-04-30T17:12:05.342Z,97856.06
2019-04-30T17:14:40.943Z,97851.19
2019-04-30T17:17:24.756Z,97852.09
2019-04-30T17:19:57.657Z,97855.69
2019-04-30T17:22:31.915Z,97853.17
2019-04-30T17:25:06.343Z,97849.09
2019-04-30T17:27:40.767Z,97851.67
2019-04-30T17:30:15.360Z,97850.92
2019-04-30T17:32:50.099Z,97854.11
2019-04-30T17:35:24.673Z,97851.96
2019-04-30T17:37:58.951Z,97851.34
2019-04-30T17:40:33.347Z,97850.59
2019-04-30T17:43:07.746Z,97851.25
2019-04-30T17:45:40.867Z,97847.70
2019-04-30T17:48:13.639Z,97852.80
2019-04-30T17:50:49.639Z,97849.38
2019-04-30T17:53:24.291Z,97847.21
2019-04-30T17:55:58.721Z,97850.11
2019-04-30T17:58:33.268Z,97845.77
2019-04-30T18:01:09.510Z,97840.70
2019-04-30T18:03:43.949Z,97844.13
2019-04-30T18:06:18.983Z,97847.41
2019-04-30T18:08:53.672Z,97851.44
2019-04-30T18:11:29.567Z,97851.44
2019-04-30T18:14:02.669Z,97849.40
2019-04-30T18:16:38.676Z,97853.80
2019-04-30T18:19:30.597Z,97850.98
2019-04-30T18:22:29.558Z,97851.08
2019-04-30T18:25:22.548Z,97856.12
2019-04-30T18:27:59.748Z,97851.77
2019-04-30T18:30:36.756Z,97856.60
2019-04-30T18:33:10.975Z,97863.68
2019-04-30T18:35:45.340Z,97860.48
2019-04-30T18:38:20.285Z,97864.98
2019-04-30T18:40:54.719Z,97863.66
2019-04-30T18:43:28.954Z,97866.11
2019-04-30T18:46:03.287Z,97862.13
2019-04-30T18:48:39.355Z,97870.52
2019-04-30T18:51:30.053Z,97868.45
2019-04-30T18:53:50.279Z,97868.13
2019-04-30T18:56:24.879Z,97874.66
2019-04-30T18:58:58.638Z,97873.36
2019-04-30T19:01:33.024Z,97873.52
2019-04-30T19:04:09.231Z,97873.05
2019-04-30T19:07:55.134Z,97875.23
2019-04-30T19:10:38.847Z,97873.67
2019-04-30T19:13:34.451Z,97873.08
2019-04-30T19:16:41.873Z,97874.36
2019-04-30T19:19:25.289Z,97874.36
2019-04-30T19:21:59.693Z,97883.07
2019-04-30T19:24:34.310Z,97884.95
2019-04-30T19:27:08.788Z,97892.18
2019-04-30T19:29:41.667Z,97890.72
2019-04-30T19:32:17.280Z,97890.03
2019-04-30T19:34:51.748Z,97880.71
2019-04-30T19:37:26.258Z,97885.58
2019-04-30T19:40:00.726Z,97885.58
2019-04-30T19:42:33.866Z,97879.39
2019-04-30T19:45:10.181Z,97884.88
2019-04-30T19:47:43.660Z,97884.91
2019-04-30T19:50:19.279Z,97886.45
2019-04-30T19:52:53.877Z,97874.67
2019-04-30T19:55:28.641Z,97890.67
2019-04-30T19:58:03.139Z,97890.03
2019-04-30T20:00:38.985Z,97888.95
2019-04-30T20:03:13.335Z,97888.95
2019-04-30T20:05:48.539Z,97882.54
2019-04-30T20:08:23.088Z,97883.34
2019-04-30T20:10:59.363Z,97883.66
2019-04-30T20:13:37.018Z,97883.66
2019-04-30T20:16:09.873Z,97886.44
2019-04-30T20:18:42.869Z,97890.20
2019-04-30T20:21:28.383Z,97892.80
2019-04-30T20:23:55.318Z,97891.83
2019-04-30T20:29:12.276Z,97893.72
2019-04-30T20:31:48.605Z,97890.81
2019-04-30T20:34:22.880Z,97895.32
2019-04-30T20:36:55.692Z,97889.23
2019-04-30T20:39:51.539Z,97891.32
2019-04-30T20:42:26.930Z,97885.20
2019-04-30T20:44:59.870Z,97885.62
2019-04-30T20:47:33.904Z,97886.59
2019-04-30T20:50:07.078Z,97884.18
2019-04-30T20:52:41.285Z,97881.14
2019-04-30T20:55:15.718Z,97886.59
2019-04-30T20:57:49.852Z,97874.13
2019-04-30T21:00:25.398Z,97879.83
2019-04-30T21:02:59.952Z,97870.36
2019-04-30T21:05:32.933Z,97872.25
2019-04-30T21:08:07.134Z,97869.17
2019-04-30T21:10:41.678Z,97878.45
2019-04-30T21:13:16.123Z,97878.03
2019-04-30T21:15:50.693Z,97867.87
2019-04-30T21:18:26.241Z,97867.99
2019-04-30T21:21:00.659Z,97866.67
2019-04-30T21:23:35.102Z,97865.48
2019-04-30T21:26:09.671Z,97865.09
2019-04-30T21:28:44.138Z,97865.09
2019-04-30T21:31:36.291Z,97866.08
2019-04-30T21:34:30.750Z,97864.85
2019-04-30T21:37:04.013Z,97871.34
2019-04-30T21:39:36.682Z,97869.37
2019-04-30T21:42:11.553Z,97866.19
2019-04-30T21:44:45.941Z,97864.03
2019-04-30T21:47:20.995Z,97863.45
2019-04-30T21:49:55.657Z,97860.39
2019-04-30T21:52:30.119Z,97860.39
2019-04-30T21:56:37.342Z,97861.96
2019-04-30T21:59:23.798Z,97859.83
2019-04-30T22:01:48.289Z,97861.36
2019-04-30T22:04:22.938Z,97861.98
2019-04-30T22:06:56.062Z,97861.70
2019-04-30T22:09:29.290Z,97858.30
2019-04-30T22:12:03.333Z,97855.41
2019-04-30T22:14:38.090Z,97852.97
2019-04-30T22:17:12.399Z,97857.42
2019-04-30T22:19:46.776Z,97857.75
2019-04-30T22:22:20.945Z,97857.75
2019-04-30T22:24:53.986Z,97854.08
2019-04-30T22:27:26.694Z,97858.69
2019-04-30T22:30:00.901Z,97856.83
2019-04-30T22:32:36.957Z,97853.31
2019-04-30T22:35:27.866Z,97853.17
2019-04-30T22:38:04.123Z,97854.85
2019-04-30T22:40:39.236Z,97854.85
2019-04-30T22:43:13.882Z,97854.85
2019-04-30T22:45:52.306Z,97853.16
2019-04-30T22:48:28.666Z,97849.81
2019-04-30T22:51:07.844Z,97849.81
2019-04-30T22:53:40.823Z,97851.03
2019-04-30T22:56:15.055Z,97848.72
2019-04-30T22:58:49.325Z,97847.51
2019-04-30T23:01:49.892Z,97847.51
2019-04-30T23:04:37.289Z,97841.97
2019-04-30T23:07:11.703Z,97840.42
2019-04-30T23:09:46.251Z,97835.08
2019-04-30T23:12:20.786Z,97832.45
2019-04-30T23:14:55.303Z,97834.16
2019-04-30T23:17:29.763Z,97838.31
2019-04-30T23:20:04.315Z,97829.55
2019-04-30T23:22:38.888Z,97828.16
2019-04-30T23:25:12.002Z,97834.33
2019-04-30T23:27:44.678Z,97828.33
2019-04-30T23:30:18.965Z,97826.03
2019-04-30T23:32:51.708Z,97822.03
2019-04-30T23:35:25.967Z,97818.21
2019-04-30T23:38:00.572Z,97826.95
2019-04-30T23:40:51.776Z,97822.97
2019-04-30T23:43:26.285Z,97815.45
2019-04-30T23:46:00.686Z,97809.45
2019-04-30T23:48:34.957Z,97808.38
2019-04-30T23:51:09.121Z,97808.53
2019-04-30T23:53:43.700Z,97805.48
2019-04-30T23:56:18.119Z,97803.33
2019-04-30T23:58:52.348Z,97801.02
